Time;durP1;ratioP1;P1;durP2;ratioP2;P2;SDS_P1;SDS_P2;PMS_P1;PMS_P2;Temp;Humidity;BMP_temperature;BMP_pressure;BME280_temperature;BME280_humidity;BME280_pressure;Samples;Min_cycle;Max_cycle;Signal;HPM_P1;HPM_P2
2022/05/27 00:00:41;;;;;;;3.50;0.70;;;;;;;16.27;64.89;99246.53;5111576;28;20497;-65
2022/05/27 00:03:26;;;;;;;3.78;0.50;;;;;;;16.22;65.76;99241.66;5112433;28;20133;-66
2022/05/27 00:06:11;;;;;;;4.00;0.50;;;;;;;16.41;65.13;99234.78;5112803;28;20044;-65
2022/05/27 00:08:57;;;;;;;1.23;0.50;;;;;;;16.27;64.73;99239.47;5111957;28;20051;-66
2022/05/27 00:11:41;;;;;;;1.00;0.47;;;;;;;16.23;64.53;99222.16;5111388;28;20039;-65
2022/05/27 00:14:27;;;;;;;1.65;0.70;;;;;;;16.17;63.85;99236.75;5111298;28;20300;-66
2022/05/27 00:17:11;;;;;;;0.90;0.60;;;;;;;16.20;63.59;99218.00;5097284;28;20032;-67
2022/05/27 00:19:56;;;;;;;1.10;0.50;;;;;;;16.18;63.44;99219.91;5097115;28;20156;-65
2022/05/27 00:22:41;;;;;;;1.10;0.60;;;;;;;16.20;63.07;99223.28;5112598;28;20420;-66
2022/05/27 00:25:26;;;;;;;1.77;0.60;;;;;;;16.22;62.74;99215.22;5112125;28;20066;-67
2022/05/27 00:28:10;;;;;;;1.85;0.50;;;;;;;16.19;63.07;99213.66;5112359;28;20536;-66
2022/05/27 00:31:24;;;;;;;0.80;0.40;;;;;;;16.20;62.80;99217.16;5111909;28;20070;-68
2022/05/27 00:34:09;;;;;;;0.90;0.40;;;;;;;16.20;62.61;99207.41;5111238;28;20050;-66
2022/05/27 00:36:55;;;;;;;1.67;0.50;;;;;;;16.22;62.04;99212.56;5112588;28;20043;-66
2022/05/27 00:39:40;;;;;;;2.00;0.65;;;;;;;16.22;61.76;99209.94;5111458;28;20391;-66
2022/05/27 00:42:25;;;;;;;0.73;0.30;;;;;;;16.17;61.68;99205.03;5111235;28;20062;-65
2022/05/27 00:45:16;;;;;;;3.42;0.80;;;;;;;16.13;62.02;99195.69;5111889;28;20108;-65
2022/05/27 00:48:05;;;;;;;0.70;0.45;;;;;;;16.08;61.55;99204.00;5111732;28;20050;-65
2022/05/27 00:50:50;;;;;;;1.92;0.55;;;;;;;16.09;61.70;99200.38;5111174;28;20477;-66
2022/05/27 00:53:40;;;;;;;1.60;0.50;;;;;;;16.02;61.50;99207.19;5111336;28;20031;-66
2022/05/27 00:56:30;;;;;;;0.22;0.20;;;;;;;16.02;61.33;99196.59;5111157;28;20050;-67
2022/05/27 00:59:28;;;;;;;4.32;0.50;;;;;;;15.93;61.65;99194.72;5109426;28;20060;-65
2022/05/27 01:02:13;;;;;;;1.27;0.68;;;;;;;15.93;61.51;99197.34;5111826;28;20043;-65
2022/05/27 01:05:01;;;;;;;0.82;0.38;;;;;;;15.93;61.67;99197.34;5111919;28;20043;-66
2022/05/27 01:07:46;;;;;;;2.67;0.57;;;;;;;15.98;61.93;99203.94;5112204;28;20031;-65
2022/05/27 01:10:47;;;;;;;1.55;0.50;;;;;;;15.91;62.06;99194.00;5111795;28;20059;-65
2022/05/27 01:13:58;;;;;;;3.60;0.50;;;;;;;15.83;62.49;99197.28;5112022;28;20600;-66
2022/05/27 01:16:49;;;;;;;1.27;0.50;;;;;;;15.81;62.71;99186.00;5111832;28;20047;-66
2022/05/27 01:23:20;;;;;;;1.15;0.60;;;;;;;15.87;62.95;99183.69;5111864;28;20043;-65
2022/05/27 01:26:17;;;;;;;;;;;;;;;15.76;63.67;99192.53;5112062;28;20084;-65
2022/05/27 01:29:43;;;;;;;1.83;0.68;;;;;;;15.73;64.59;99189.31;5110352;28;19916;-65
2022/05/27 01:32:43;;;;;;;0.80;0.47;;;;;;;15.64;65.21;99191.75;5111225;28;20036;-65
2022/05/27 01:35:37;;;;;;;1.02;0.60;;;;;;;15.61;65.82;99188.50;5110840;28;20058;-66
2022/05/27 01:39:01;;;;;;;1.35;0.63;;;;;;;15.61;66.05;99183.22;5109601;28;20077;-65
2022/05/27 01:42:13;;;;;;;1.48;0.70;;;;;;;15.45;67.12;99181.88;5109901;28;20040;-66
2022/05/27 01:45:17;;;;;;;2.00;0.60;;;;;;;15.41;67.52;99176.97;5110279;28;20471;-65
2022/05/27 01:48:12;;;;;;;0.82;0.60;;;;;;;15.38;67.87;99181.53;5110315;28;20039;-65
2022/05/27 01:51:13;;;;;;;4.45;0.85;;;;;;;15.42;67.90;99170.72;5111092;28;20058;-66
2022/05/27 01:54:00;;;;;;;2.07;0.77;;;;;;;15.49;67.39;99175.38;5110306;28;20034;-66
2022/05/27 01:56:55;;;;;;;1.55;0.63;;;;;;;15.49;66.97;99167.44;5110801;28;20465;-66
2022/05/27 02:00:16;;;;;;;1.25;0.60;;;;;;;15.53;67.18;99170.69;5095073;28;20048;-66
2022/05/27 02:03:23;;;;;;;1.92;0.57;;;;;;;15.54;66.69;99163.59;5109913;28;20043;-66
2022/05/27 02:06:27;;;;;;;3.20;0.60;;;;;;;15.57;66.75;99168.63;5111863;28;20057;-66
2022/05/27 02:09:28;;;;;;;1.65;0.70;;;;;;;15.56;66.36;99170.41;5110644;28;20042;-66
2022/05/27 02:12:29;;;;;;;2.40;0.52;;;;;;;15.68;65.61;99159.78;5110236;28;20050;-65
2022/05/27 02:15:22;;;;;;;1.17;0.70;;;;;;;15.67;65.38;99164.22;5109307;28;20108;-66
2022/05/27 02:18:12;;;;;;;1.10;0.50;;;;;;;15.70;65.48;99157.88;5110376;28;20043;-66
2022/05/27 02:21:14;;;;;;;0.93;0.57;;;;;;;15.66;65.93;99165.22;5110096;28;20035;-66
2022/05/27 02:24:06;;;;;;;4.07;0.52;;;;;;;15.68;66.14;99151.88;5108716;28;20046;-65
2022/05/27 02:26:58;;;;;;;1.92;0.60;;;;;;;15.71;65.29;99151.63;5110028;28;20084;-66
2022/05/27 02:29:48;;;;;;;1.30;0.77;;;;;;;15.65;65.47;99152.97;5110294;28;20339;-65
2022/05/27 02:36:18;;;;;;;2.92;0.50;;;;;;;15.62;65.54;99156.69;5108870;28;20044;-66
2022/05/27 02:39:07;;;;;;;3.42;0.50;;;;;;;15.59;65.75;99156.94;5109301;28;20036;-65
2022/05/27 02:42:20;;;;;;;1.15;0.50;;;;;;;15.60;65.54;99161.25;5110083;28;20050;-66
2022/05/27 02:45:24;;;;;;;5.47;0.70;;;;;;;15.56;65.78;99161.66;5109967;28;20363;-65
2022/05/27 02:48:26;;;;;;;1.10;0.60;;;;;;;15.63;65.43;99163.63;5108943;28;20061;-66
2022/05/27 02:51:17;;;;;;;;;;;;;;;15.62;65.17;99161.97;5108201;28;20062;-65
2022/05/27 02:54:11;;;;;;;0.73;0.50;;;;;;;15.60;65.83;99161.25;5110203;28;19973;-66
2022/05/27 02:57:04;;;;;;;3.90;0.65;;;;;;;15.57;65.27;99158.88;5109455;28;20039;-66
2022/05/27 02:59:51;;;;;;;0.93;0.50;;;;;;;15.53;66.08;99160.13;5112412;28;20478;-66
2022/05/27 03:02:36;;;;;;;0.95;0.60;;;;;;;15.59;65.47;99156.94;5110530;28;20039;-66
2022/05/27 03:05:26;;;;;;;1.77;0.57;;;;;;;15.60;65.21;99160.44;5113869;28;20089;-66
2022/05/27 03:08:38;;;;;;;0.98;0.57;;;;;;;15.55;65.80;99160.84;5113356;28;20050;-66
2022/05/27 03:11:45;;;;;;;1.40;0.65;;;;;;;15.52;66.15;99161.09;5111187;28;20359;-64
2022/05/27 03:14:50;;;;;;;0.70;0.50;;;;;;;15.55;65.73;99155.56;5106149;28;20047;-66
2022/05/27 03:18:00;;;;;;;0.95;0.50;;;;;;;15.57;66.22;99166.81;5109384;28;20038;-66
2022/05/27 03:20:49;;;;;;;2.35;0.68;;;;;;;15.56;66.07;99166.94;5108809;28;20036;-66
2022/05/27 03:24:02;;;;;;;0.70;0.45;;;;;;;15.61;66.03;99165.59;5108460;28;20040;-65
2022/05/27 03:27:10;;;;;;;2.17;0.60;;;;;;;15.60;65.85;99161.25;5110964;28;20047;-66
2022/05/27 03:30:07;;;;;;;0.93;0.40;;;;;;;15.62;66.08;99169.06;5095588;28;20039;-66
2022/05/27 03:33:35;;;;;;;0.85;0.43;;;;;;;15.66;65.67;99167.84;5108022;28;20083;-67
2022/05/27 03:36:27;;;;;;;1.27;0.65;;;;;;;15.71;66.16;99167.47;5109705;28;20032;-67
2022/05/27 03:39:20;;;;;;;1.65;0.50;;;;;;;15.75;65.92;99158.28;5107837;28;20040;-66
2022/05/27 03:42:08;;;;;;;3.33;0.68;;;;;;;15.69;65.62;99164.94;5108449;28;20063;-66
2022/05/27 03:45:17;;;;;;;1.10;0.68;;;;;;;15.72;65.75;99163.84;5107491;28;20140;-65
2022/05/27 03:48:03;;;;;;;1.30;0.60;;;;;;;15.81;65.82;99156.97;5111320;28;20061;-66
2022/05/27 03:50:52;;;;;;;0.57;0.45;;;;;;;15.81;65.83;99160.44;5111432;28;20126;-65
2022/05/27 03:56:42;;;;;;;1.42;0.50;;;;;;;15.78;66.18;99166.00;5108585;28;20058;-65
2022/05/27 03:59:27;;;;;;;0.88;0.40;;;;;;;15.77;66.06;99164.28;5110207;28;20036;-65
2022/05/27 04:02:12;;;;;;;1.88;0.60;;;;;;;15.72;66.57;99162.03;5111068;28;20035;-66
2022/05/27 04:04:57;;;;;;;1.33;0.60;;;;;;;15.71;66.67;99156.91;5110828;28;20048;-65
2022/05/27 04:07:42;;;;;;;0.90;0.50;;;;;;;15.76;66.47;99163.47;5110668;28;20040;-66
2022/05/27 04:10:28;;;;;;;0.90;0.45;;;;;;;15.79;66.25;99167.66;5111976;28;20039;-65
2022/05/27 04:13:13;;;;;;;2.00;0.50;;;;;;;15.81;67.19;99165.72;5111056;28;20105;-71
2022/05/27 04:15:57;;;;;;;1.15;0.43;;;;;;;15.77;66.91;99162.50;5111913;28;20046;-64
2022/05/27 04:18:42;;;;;;;0.65;0.45;;;;;;;15.71;67.20;99168.31;5096732;28;20064;-67
2022/05/27 04:21:28;;;;;;;3.60;0.52;;;;;;;15.84;66.71;99167.25;5112172;28;20092;-67
2022/05/27 04:24:13;;;;;;;1.75;0.50;;;;;;;15.77;66.64;99159.84;5096926;28;20065;-69
2022/05/27 04:26:57;;;;;;;3.15;0.82;;;;;;;15.84;66.49;99169.91;5096854;28;20105;-66
2022/05/27 04:29:52;;;;;;;0.98;0.60;;;;;;;15.83;67.29;99161.13;5110204;28;20466;-66
2022/05/27 04:32:38;;;;;;;1.00;0.52;;;;;;;16.18;66.95;99166.22;5111779;28;20059;-66
2022/05/27 04:35:22;;;;;;;2.47;0.60;;;;;;;15.95;66.80;99164.53;5125272;27;20125;-66
2022/05/27 04:38:08;;;;;;;0.70;0.60;;;;;;;15.99;67.69;99159.88;5111109;28;20051;-66
2022/05/27 04:40:53;;;;;;;1.48;0.65;;;;;;;16.18;66.90;99167.06;5096473;28;20039;-67
2022/05/27 04:43:38;;;;;;;2.38;0.60;;;;;;;16.34;66.17;99168.38;5112101;28;20051;-66
2022/05/27 04:46:22;;;;;;;0.65;0.40;;;;;;;16.90;65.13;99167.97;5109752;28;20035;-67
2022/05/27 04:49:07;;;;;;;1.60;0.52;;;;;;;16.50;65.54;99168.72;5110827;28;20051;-66
2022/05/27 04:51:52;;;;;;;0.68;0.38;;;;;;;16.65;64.90;99181.56;5111594;28;20089;-66
2022/05/27 04:54:37;;;;;;;0.50;0.40;;;;;;;16.75;64.71;99166.56;5110214;28;20063;-66
2022/05/27 04:57:25;;;;;;;0.60;0.32;;;;;;;16.60;65.28;99171.41;5111803;28;20370;-68
2022/05/27 05:00:15;;;;;;;3.13;0.55;;;;;;;16.72;64.73;99161.56;5110658;28;20388;-64
2022/05/27 05:03:01;;;;;;;0.90;0.50;;;;;;;17.08;65.83;99162.84;5110097;28;20050;-69
2022/05/27 05:05:45;;;;;;;0.60;0.47;;;;;;;17.96;61.50;99172.59;5111513;28;20043;-65
2022/05/27 05:08:34;;;;;;;0.85;0.50;;;;;;;17.85;61.95;99160.31;5109480;28;20043;-68
2022/05/27 05:11:19;;;;;;;2.83;0.60;;;;;;;18.16;61.77;99163.78;5107643;28;20127;-66
2022/05/27 05:14:03;;;;;;;1.25;0.43;;;;;;;18.24;61.68;99163.88;5110211;28;20032;-65
2022/05/27 05:16:49;;;;;;;1.17;0.60;;;;;;;18.33;60.62;99170.13;5111077;28;20045;-66
2022/05/27 05:19:35;;;;;;;2.35;0.40;;;;;;;17.72;61.85;99168.56;5110933;28;20035;-69
2022/05/27 05:22:20;;;;;;;1.85;0.70;;;;;;;17.95;61.28;99170.09;5110276;28;20394;-68
2022/05/27 05:25:06;;;;;;;1.60;0.47;;;;;;;18.04;62.11;99165.72;5111200;28;20042;-66
2022/05/27 05:27:52;;;;;;;3.38;0.73;;;;;;;18.16;61.96;99161.97;5109328;28;20047;-66
2022/05/27 05:30:37;;;;;;;0.82;0.40;;;;;;;18.33;61.55;99164.81;5109986;28;20071;-66
2022/05/27 05:33:22;;;;;;;0.95;0.55;;;;;;;18.13;60.60;99162.25;5110886;28;20040;-65
2022/05/27 05:36:07;;;;;;;4.22;0.60;;;;;;;18.06;62.49;99164.63;5111217;28;20911;-63
2022/05/27 05:38:52;;;;;;;0.50;0.30;;;;;;;18.29;60.74;99166.94;5111542;28;20502;-64
2022/05/27 05:41:40;;;;;;;1.55;0.50;;;;;;;18.16;61.65;99154.00;5110027;28;20119;-66
2022/05/27 05:44:30;;;;;;;3.03;0.60;;;;;;;18.51;60.88;99156.09;5095571;28;20043;-64
2022/05/27 05:47:15;;;;;;;2.70;0.70;;;;;;;18.39;61.54;99147.50;5110314;28;20064;-66
2022/05/27 05:50:00;;;;;;;1.48;0.70;;;;;;;18.48;61.17;99149.25;5095355;28;20042;-66
2022/05/27 05:52:45;;;;;;;0.98;0.50;;;;;;;18.93;60.27;99149.44;5109159;28;20640;-69
2022/05/27 05:55:32;;;;;;;1.25;0.45;;;;;;;18.82;60.08;99150.47;5108180;28;20110;-69
2022/05/27 05:58:16;;;;;;;1.42;0.60;;;;;;;18.87;60.36;99142.88;5093833;28;20044;-68
2022/05/27 06:01:01;;;;;;;3.25;0.50;;;;;;;19.27;58.79;99139.97;5106550;28;20039;-66
2022/05/27 06:03:47;;;;;;;1.15;0.55;;;;;;;18.83;59.18;99146.84;5105914;28;20584;-66
2022/05/27 06:06:32;;;;;;;1.33;0.55;;;;;;;19.01;59.18;99149.50;5106885;28;20518;-65
2022/05/27 06:09:19;;;;;;;5.03;0.77;;;;;;;19.14;58.92;99138.53;5105876;28;20032;-65
2022/05/27 06:12:05;;;;;;;1.10;0.60;;;;;;;19.40;57.22;99144.91;5105984;28;20039;-66
2022/05/27 06:14:53;;;;;;;2.88;0.50;;;;;;;19.04;58.56;99137.75;5107365;28;20047;-66
2022/05/27 06:17:37;;;;;;;1.38;0.47;;;;;;;19.29;57.77;99133.50;5093720;28;20093;-66
2022/05/27 06:20:22;;;;;;;2.33;0.40;;;;;;;19.34;57.14;99138.34;5107047;28;20059;-57
2022/05/27 06:23:08;;;;;;;1.50;0.50;;;;;;;19.31;57.75;99136.00;5092641;28;20031;-65
2022/05/27 06:25:55;;;;;;;1.45;0.73;;;;;;;19.54;56.71;99140.84;5104955;28;20536;-66
2022/05/27 06:34:48;;;;;;;2.78;0.40;;;;;;;19.61;55.90;99141.06;5113556;28;20046;-66
2022/05/27 06:37:33;;;;;;;2.10;0.50;;;;;;;20.09;54.74;99120.28;5111928;28;20040;-64
2022/05/27 06:40:18;;;;;;;1.70;0.40;;;;;;;20.54;54.03;99130.78;5110996;28;20031;-64
2022/05/27 06:43:03;;;;;;;4.50;0.50;;;;;;;20.42;53.66;99128.41;5111517;28;20047;-69
2022/05/27 06:45:48;;;;;;;1.00;0.50;;;;;;;20.52;52.78;99122.97;5111578;28;20055;-65
2022/05/27 06:48:32;;;;;;;1.10;0.50;;;;;;;20.45;52.51;99116.59;5113437;28;20043;-68
2022/05/27 06:51:18;;;;;;;1.30;0.50;;;;;;;20.19;53.06;99118.34;5096353;28;20078;-64
2022/05/27 06:54:05;;;;;;;2.63;0.60;;;;;;;20.61;52.04;99126.50;5097214;28;20047;-65
2022/05/27 06:56:52;;;;;;;2.47;0.55;;;;;;;20.73;50.71;99118.19;5114097;28;20044;-68
2022/05/27 06:59:37;;;;;;;1.05;0.60;;;;;;;20.85;51.50;99116.03;5113862;28;20425;-68
2022/05/27 07:02:22;;;;;;;1.15;0.43;;;;;;;20.59;52.76;99117.81;5113255;28;20047;-66
2022/05/27 07:05:07;;;;;;;2.05;0.60;;;;;;;20.52;52.40;99125.63;5110439;27;20123;-69
2022/05/27 07:07:53;;;;;;;1.23;0.60;;;;;;;20.96;51.66;99105.09;5120725;28;20032;-68
2022/05/27 07:10:38;;;;;;;2.00;0.60;;;;;;;20.87;51.88;99114.06;5118947;28;20039;-69
2022/05/27 07:13:23;;;;;;;1.13;0.60;;;;;;;20.34;52.05;99109.75;5113180;28;20039;-65
2022/05/27 07:16:07;;;;;;;1.52;0.40;;;;;;;20.38;52.16;99097.81;5112380;28;20472;-67
2022/05/27 07:18:53;;;;;;;0.90;0.30;;;;;;;20.23;51.59;99113.53;5119592;28;20406;-66
2022/05/27 07:21:44;;;;;;;1.50;0.50;;;;;;;20.90;50.36;99105.75;5115853;28;20051;-67
2022/05/27 07:24:29;;;;;;;0.90;0.43;;;;;;;21.41;49.58;99094.94;5116028;28;20481;-67
2022/05/27 07:27:14;;;;;;;0.95;0.40;;;;;;;21.37;48.39;99101.63;5111029;28;20119;-68
2022/05/27 07:30:00;;;;;;;0.90;0.45;;;;;;;21.00;49.52;99103.78;5097421;28;20116;-68
2022/05/27 07:32:45;;;;;;;1.30;0.47;;;;;;;21.05;49.52;99096.13;5112322;28;20058;-68
2022/05/27 07:35:29;;;;;;;1.58;0.57;;;;;;;21.33;49.45;99096.81;5082832;28;20440;-66
2022/05/27 07:38:15;;;;;;;0.40;0.30;;;;;;;20.99;49.67;99094.13;5108638;28;20039;-67
2022/05/27 07:41:00;;;;;;;3.78;0.55;;;;;;;21.25;49.72;99105.63;5107591;28;20097;-64
2022/05/27 07:43:45;;;;;;;3.13;1.08;;;;;;;21.60;47.74;99092.09;5111129;28;20238;-66
2022/05/27 07:46:33;;;;;;;3.78;0.50;;;;;;;22.23;46.70;99091.47;5109904;28;20035;-67
2022/05/27 07:49:18;;;;;;;5.70;0.70;;;;;;;22.46;46.27;99086.16;5118479;28;20063;-66
2022/05/27 07:52:05;;;;;;;1.52;0.40;;;;;;;22.70;46.80;99080.88;5112571;28;20039;-66
2022/05/27 07:54:51;;;;;;;0.98;0.30;;;;;;;22.51;46.03;99081.13;5111742;28;20046;-68
2022/05/27 07:57:47;;;;;;;1.23;0.65;;;;;;;23.13;44.20;99093.75;5110754;28;20086;-67
2022/05/27 08:00:34;;;;;;;2.28;0.57;;;;;;;23.13;44.71;99080.38;5093834;28;20119;-65
2022/05/27 08:03:20;;;;;;;1.98;0.50;;;;;;;22.94;44.37;99082.56;5109348;28;20040;-64
2022/05/27 08:06:05;;;;;;;0.65;0.50;;;;;;;22.22;45.53;99087.94;5112923;28;20059;-68
2022/05/27 08:08:52;;;;;;;1.50;0.50;;;;;;;22.80;44.10;99080.66;5108618;28;20043;-69
2022/05/27 08:11:37;;;;;;;1.08;0.40;;;;;;;23.44;43.43;99070.63;5111475;28;20080;-69
2022/05/27 08:14:22;;;;;;;1.75;0.47;;;;;;;23.96;42.19;99066.22;5112455;28;20044;-68
2022/05/27 08:17:07;;;;;;;0.80;0.50;;;;;;;23.52;42.58;99054.50;5097381;28;20074;-68
2022/05/27 08:19:52;;;;;;;1.67;0.43;;;;;;;23.34;42.48;99062.88;5112471;28;20039;-68
2022/05/27 08:22:37;;;;;;;1.42;0.30;;;;;;;23.52;42.52;99059.84;5096934;28;20046;-67
2022/05/27 08:25:24;;;;;;;2.42;0.50;;;;;;;22.96;43.42;99053.00;5096919;28;20066;-68
2022/05/27 08:28:09;;;;;;;1.10;0.43;;;;;;;23.58;42.89;99048.47;5112013;28;20051;-68
2022/05/27 08:30:58;;;;;;;2.58;0.50;;;;;;;24.07;41.88;99056.88;5111149;28;20043;-60
2022/05/27 08:39:52;;;;;;;0.50;0.30;;;;;;;24.38;41.00;99044.34;5112559;28;20602;-68
2022/05/27 08:42:39;;;;;;;0.82;0.30;;;;;;;24.39;40.84;99035.28;5096419;28;20032;-68
2022/05/27 08:45:42;;;;;;;0.38;0.22;;;;;;;25.29;39.95;99039.41;5112058;28;20039;-66
2022/05/27 08:48:33;;;;;;;8.98;0.65;;;;;;;25.66;38.70;99039.25;5110815;28;20043;-68
2022/05/27 08:51:22;;;;;;;1.13;0.40;;;;;;;24.12;40.70;99035.75;5109267;28;20059;-69
2022/05/27 08:54:37;;;;;;;1.90;0.40;;;;;;;24.17;39.99;99023.72;5107447;28;20370;-67
2022/05/27 09:00:29;;;;;;;1.85;0.30;;;;;;;24.45;40.07;99021.13;5112026;28;20047;-68
2022/05/27 09:03:15;;;;;;;0.57;0.35;;;;;;;24.33;39.67;99025.34;5110285;28;20051;-69
2022/05/27 09:06:04;;;;;;;0.40;0.30;;;;;;;24.81;39.72;99010.53;5110542;28;20044;-68
2022/05/27 09:08:49;;;;;;;0.77;0.40;;;;;;;24.11;40.43;99012.72;5109907;28;20043;-67
2022/05/27 09:12:21;;;;;;;1.13;0.30;;;;;;;24.06;40.20;99009.75;5094627;28;20376;-68
2022/05/27 09:15:44;;;;;;;0.50;0.40;;;;;;;24.40;39.15;98998.63;5070606;28;20084;-68
2022/05/27 09:18:51;;;;;;;2.80;0.40;;;;;;;24.84;38.71;99002.13;5095316;28;20385;-67
2022/05/27 09:22:16;;;;;;;1.42;0.35;;;;;;;25.33;37.92;99002.31;5110078;28;20475;-67
2022/05/27 09:25:21;;;;;;;2.85;0.32;;;;;;;25.67;37.27;98984.56;5111119;28;20031;-68
2022/05/27 09:28:28;;;;;;;2.00;0.38;;;;;;;25.02;38.42;98985.59;5109648;28;20059;-68
2022/05/27 09:31:18;;;;;;;1.80;0.43;;;;;;;24.63;37.55;98981.56;5109733;28;20032;-67
2022/05/27 09:34:03;;;;;;;1.48;0.45;;;;;;;25.21;37.33;98972.53;5110998;28;20075;-68
2022/05/27 09:36:53;;;;;;;0.80;0.30;;;;;;;25.33;37.20;98973.66;5110083;28;20104;-67
2022/05/27 09:39:39;;;;;;;1.60;0.30;;;;;;;25.39;37.37;98965.84;5110841;28;20520;-67
2022/05/27 09:42:31;;;;;;;2.05;0.50;;;;;;;25.30;36.74;98976.72;5095431;28;20067;-67
2022/05/27 09:45:17;;;;;;;1.00;0.35;;;;;;;25.41;36.97;98958.44;5110956;28;20382;-68
2022/05/27 09:48:06;;;;;;;0.75;0.35;;;;;;;25.40;36.25;98970.16;5111976;28;20065;-67
2022/05/27 09:50:51;;;;;;;0.63;0.30;;;;;;;25.79;36.19;98952.66;5116169;28;20047;-67
2022/05/27 09:54:08;;;;;;;2.65;0.30;;;;;;;25.49;35.78;98966.31;5109857;28;20119;-68
2022/05/27 09:57:02;;;;;;;0.95;0.30;;;;;;;25.42;35.54;98954.72;5110765;28;20039;-67
2022/05/27 10:00:03;;;;;;;0.47;0.30;;;;;;;25.55;35.66;98945.91;5110132;28;20082;-68
2022/05/27 10:02:48;;;;;;;0.50;0.30;;;;;;;26.65;34.59;98940.66;5110653;28;20055;-68
2022/05/27 10:05:33;;;;;;;1.40;0.40;;;;;;;26.95;34.46;98945.59;5110237;28;20334;-67
2022/05/27 10:08:35;;;;;;;1.58;0.30;;;;;;;25.92;35.22;98940.31;5108790;28;20039;-67
2022/05/27 10:11:22;;;;;;;1.67;0.60;;;;;;;27.50;33.57;98941.75;5109869;28;20043;-70
2022/05/27 10:14:07;;;;;;;1.08;0.20;;;;;;;26.42;34.32;98940.00;5110512;28;20501;-68
2022/05/27 10:17:11;;;;;;;4.43;0.50;;;;;;;25.38;35.70;98935.53;5110418;28;20036;-68
2022/05/27 10:20:18;;;;;;;4.57;0.45;;;;;;;23.88;38.21;98940.63;5110280;28;20119;-69
2022/05/27 10:23:26;;;;;;;2.15;0.30;;;;;;;23.47;38.78;98929.44;5110309;28;20100;-68
2022/05/27 10:26:32;;;;;;;0.82;0.35;;;;;;;23.86;38.69;98927.44;5110564;28;20123;-68
2022/05/27 10:29:19;;;;;;;2.60;0.55;;;;;;;23.84;39.29;98923.31;5109097;28;20181;-69
2022/05/27 10:32:04;;;;;;;1.45;0.32;;;;;;;24.45;37.76;98919.41;5109655;28;20039;-69
2022/05/27 10:34:50;;;;;;;2.38;0.40;;;;;;;24.34;37.13;98914.56;5109197;28;20361;-69
2022/05/27 10:37:53;;;;;;;0.50;0.25;;;;;;;25.22;36.25;98905.34;5110119;28;20061;-67
2022/05/27 10:41:22;;;;;;;1.67;0.40;;;;;;;26.10;34.16;98904.03;5109977;28;20067;-68
2022/05/27 10:44:38;;;;;;;1.35;0.45;;;;;;;24.67;36.63;98889.09;5108760;28;20538;-68
2022/05/27 10:47:23;;;;;;;1.77;0.40;;;;;;;26.10;34.77;98879.88;5102321;28;20104;-68
2022/05/27 10:50:22;;;;;;;1.55;0.43;;;;;;;26.51;34.24;98883.41;5109740;28;20146;-68
2022/05/27 10:53:06;;;;;;;0.82;0.30;;;;;;;26.85;34.20;98875.34;5106157;28;20040;-68
2022/05/27 10:55:57;;;;;;;1.02;0.40;;;;;;;27.24;32.97;98868.22;5107681;28;20150;-67
2022/05/27 11:02:10;;;;;;;1.17;0.60;;;;;;;26.17;35.28;98865.44;5109696;28;20414;-66
2022/05/27 11:05:16;;;;;;;2.75;1.63;;;;;;;25.16;38.22;98849.03;5108330;28;20471;-67
2022/05/27 11:08:17;;;;;;;3.42;1.63;;;;;;;26.27;35.03;98854.28;5107656;28;20471;-68
2022/05/27 11:11:27;;;;;;;6.70;3.42;;;;;;;27.09;34.29;98852.38;5109595;28;20486;-68
2022/05/27 11:18:30;;;;;;;0.95;0.32;;;;;;;27.56;32.84;98843.28;5108474;28;20089;-68
2022/05/27 11:21:53;;;;;;;0.93;0.28;;;;;;;26.77;34.38;98836.09;5090089;28;20107;-69
2022/05/27 11:24:45;;;;;;;1.30;0.40;;;;;;;26.73;34.30;98842.91;5079991;28;20153;-69
2022/05/27 11:27:57;;;;;;;1.33;0.73;;;;;;;25.88;36.04;98826.41;5113468;28;20363;-70
2022/05/27 11:31:20;;;;;;;1.15;0.60;;;;;;;26.74;35.48;98825.75;5110721;28;20367;-67
2022/05/27 11:34:27;;;;;;;0.85;0.30;;;;;;;27.10;33.97;98810.19;5104367;28;20055;-68
2022/05/27 11:37:35;;;;;;;1.00;0.40;;;;;;;26.91;33.46;98826.94;5113298;28;20051;-68
2022/05/27 11:41:18;;;;;;;2.30;0.77;;;;;;;27.17;33.99;98808.31;5091047;28;20051;-68
2022/05/27 11:44:39;;;;;;;3.60;0.73;;;;;;;26.91;33.58;98815.41;5050265;28;20073;-53
2022/05/27 11:47:27;;;;;;;3.97;0.40;;;;;;;27.13;33.85;98801.69;5113377;28;20047;-71
2022/05/27 11:50:35;;;;;;;1.20;0.60;;;;;;;26.99;33.43;98790.97;5108668;28;20457;-58
2022/05/27 11:53:58;;;;;;;3.35;0.40;;;;;;;27.28;33.04;98801.41;5111180;28;20058;-69
2022/05/27 11:57:44;;;;;;;2.25;0.30;;;;;;;27.38;33.27;98777.59;5107188;28;20059;-69
2022/05/27 12:00:39;;;;;;;2.38;0.60;;;;;;;27.84;33.15;98780.22;5090222;28;20479;-69
2022/05/27 12:03:52;;;;;;;1.90;1.00;;;;;;;28.11;32.47;98761.16;5099230;28;20064;-69
2022/05/27 12:07:00;;;;;;;2.95;0.40;;;;;;;27.32;32.92;98777.63;5093005;28;20044;-69
2022/05/27 12:09:57;;;;;;;1.20;0.30;;;;;;;27.45;31.93;98764.13;5094611;28;20043;-69
2022/05/27 12:13:26;;;;;;;1.27;0.50;;;;;;;28.23;31.64;98768.50;5093744;28;20047;-71
2022/05/27 12:16:27;;;;;;;2.03;0.38;;;;;;;28.06;31.94;98758.28;5057500;28;20044;-69
2022/05/27 12:19:16;;;;;;;1.92;0.40;;;;;;;27.75;32.27;98758.13;5095263;28;20036;-69
2022/05/27 12:22:16;;;;;;;0.65;0.20;;;;;;;27.67;32.48;98748.47;5098089;28;20051;-69
2022/05/27 12:25:07;;;;;;;1.08;0.30;;;;;;;27.71;33.13;98742.66;5101350;28;20036;-69
2022/05/27 12:27:54;;;;;;;0.65;0.40;;;;;;;27.72;32.47;98741.59;5105874;28;20048;-69
2022/05/27 12:30:42;;;;;;;1.10;0.30;;;;;;;26.99;33.48;98728.34;5108778;28;20059;-68
2022/05/27 12:33:30;;;;;;;3.10;0.40;;;;;;;27.56;33.61;98749.13;5100158;28;20065;-67
2022/05/27 12:36:26;;;;;;;1.67;0.40;;;;;;;27.79;33.17;98740.50;5094739;28;20391;-66
2022/05/27 12:39:23;;;;;;;1.02;0.40;;;;;;;28.53;32.11;98738.19;5093996;28;20433;-67
2022/05/27 12:42:11;;;;;;;1.67;0.50;;;;;;;27.76;33.13;98724.78;5093302;28;20036;-68
2022/05/27 12:45:11;;;;;;;0.55;0.40;;;;;;;28.08;32.93;98723.91;5092176;28;20040;-70
2022/05/27 12:47:56;;;;;;;;;;;;;;;27.76;32.83;98711.34;5102963;28;20040;-68
2022/05/27 12:50:45;;;;;;;0.88;0.35;;;;;;;28.27;32.76;98711.31;5098040;28;19920;-69
2022/05/27 12:53:43;;;;;;;1.67;0.30;;;;;;;27.39;34.25;98721.94;5111685;28;20046;-65
2022/05/27 13:02:51;;;;;;;2.55;0.50;;;;;;;27.32;33.57;98694.28;5093109;28;20407;-69
2022/05/27 13:06:11;;;;;;;0.68;0.20;;;;;;;27.16;33.79;98689.19;5092416;28;20739;-68
2022/05/27 13:08:57;;;;;;;0.60;0.20;;;;;;;27.57;33.31;98685.44;5092175;28;20093;-66
2022/05/27 13:11:44;;;;;;;0.90;0.45;;;;;;;28.00;33.16;98683.81;5120372;27;20128;-64
2022/05/27 13:14:45;;;;;;;1.08;0.57;;;;;;;27.28;33.61;98665.16;5109266;28;20122;-69
2022/05/27 13:17:36;;;;;;;3.40;0.35;;;;;;;27.25;33.98;98665.59;5112958;28;20085;-68
2022/05/27 13:20:39;;;;;;;0.60;0.40;;;;;;;27.79;33.17;98667.06;5108666;28;20055;-68
2022/05/27 13:23:27;;;;;;;0.85;0.30;;;;;;;26.77;34.03;98664.16;5092432;28;20039;-67
2022/05/27 13:26:28;;;;;;;0.95;0.50;;;;;;;26.57;34.90;98673.16;5091282;28;20032;-68
2022/05/27 13:29:35;;;;;;;0.65;0.40;;;;;;;26.75;34.77;98652.81;5091519;28;20375;-68
2022/05/27 13:32:24;;;;;;;1.00;0.20;;;;;;;27.10;34.31;98656.97;5064495;28;20075;-68
2022/05/27 13:35:17;;;;;;;0.68;0.40;;;;;;;27.12;34.93;98647.69;5112884;28;20065;-67
2022/05/27 13:38:04;;;;;;;0.50;0.35;;;;;;;27.37;34.54;98668.38;5097556;28;20036;-68
2022/05/27 13:40:48;;;;;;;1.27;0.30;;;;;;;26.90;34.58;98647.16;5112197;28;20043;-67
2022/05/27 13:43:39;;;;;;;4.93;0.40;;;;;;;27.22;33.43;98651.75;5112704;28;20156;-67
2022/05/27 13:46:29;;;;;;;0.70;0.23;;;;;;;27.21;33.73;98644.75;5109726;28;20053;-68
2022/05/27 13:49:19;;;;;;;0.70;0.40;;;;;;;26.68;35.05;98653.69;5092251;28;20040;-65
2022/05/27 13:52:28;;;;;;;1.80;0.60;;;;;;;26.72;35.45;98645.19;5079013;28;20056;-68
2022/05/27 13:55:14;;;;;;;3.80;0.50;;;;;;;26.99;34.96;98635.13;5092497;28;20076;-68
2022/05/27 13:58:02;;;;;;;0.55;0.30;;;;;;;27.54;34.20;98631.03;5111244;28;20316;-63
2022/05/27 14:00:48;;;;;;;0.82;0.30;;;;;;;28.30;32.79;98623.88;5094290;28;20036;-68
2022/05/27 14:03:49;;;;;;;2.08;0.30;;;;;;;27.36;33.58;98620.19;5090254;28;20456;-68
2022/05/27 14:06:35;;;;;;;0.63;0.30;;;;;;;26.89;34.25;98619.47;5091696;28;20043;-72
2022/05/27 14:09:23;;;;;;;1.98;0.30;;;;;;;26.59;34.57;98616.53;5090485;28;20138;-70
2022/05/27 14:12:10;;;;;;;0.70;0.30;;;;;;;26.91;33.67;98611.19;5092161;28;20384;-65
2022/05/27 14:14:56;;;;;;;1.13;0.35;;;;;;;26.30;34.62;98612.28;5092581;28;20032;-69